createdAt,value
2019-05-21T00:00:10.775Z,1.80
2019-05-21T00:02:15.592Z,1.60
2019-05-21T00:04:28.176Z,1.37
2019-05-21T00:06:26.776Z,1.85
2019-05-21T00:08:31.552Z,1.70
2019-05-21T00:10:36.356Z,1.40
2019-05-21T00:12:41.138Z,1.90
2019-05-21T00:14:45.934Z,3.37
2019-05-21T00:16:50.800Z,2.87
2019-05-21T00:18:55.683Z,3.60
2019-05-21T00:21:00.550Z,4.03
2019-05-21T00:23:05.374Z,3.80
2019-05-21T00:25:10.227Z,3.30
2019-05-21T00:27:15.015Z,2.70
2019-05-21T00:29:37.650Z,2.52
2019-05-21T00:32:00.438Z,3.25
2019-05-21T00:34:23.154Z,2.77
2019-05-21T00:36:45.637Z,2.50
2019-05-21T00:39:08.064Z,2.27
2019-05-21T00:41:30.503Z,2.00
2019-05-21T00:43:41.788Z,2.10
2019-05-21T00:45:46.547Z,2.52
2019-05-21T00:47:51.359Z,2.30
2019-05-21T00:49:56.194Z,2.47
2019-05-21T00:52:08.053Z,2.20
2019-05-21T00:54:07.453Z,2.80
2019-05-21T00:56:12.346Z,2.12
2019-05-21T00:58:17.182Z,2.98
2019-05-21T01:00:22.043Z,2.52
2019-05-21T01:02:29.354Z,3.55
2019-05-21T01:04:34.161Z,2.85
2019-05-21T01:06:38.958Z,2.98
2019-05-21T01:08:43.787Z,2.90
2019-05-21T01:10:48.568Z,2.95
2019-05-21T01:12:53.366Z,3.30
2019-05-21T01:14:58.122Z,3.52
2019-05-21T01:17:02.918Z,3.20
2019-05-21T01:19:07.679Z,3.15
2019-05-21T01:21:12.450Z,2.70
2019-05-21T01:23:17.204Z,2.47
2019-05-21T01:25:21.955Z,2.40
2019-05-21T01:27:26.740Z,2.90
2019-05-21T01:29:31.540Z,2.55
2019-05-21T01:31:36.376Z,2.30
2019-05-21T01:33:41.155Z,3.52
2019-05-21T01:35:45.926Z,3.30
2019-05-21T01:37:50.704Z,2.27
2019-05-21T01:39:55.613Z,2.55
2019-05-21T01:42:00.370Z,2.50
2019-05-21T01:44:05.193Z,2.35
2019-05-21T01:46:09.986Z,1.75
2019-05-21T01:48:14.801Z,1.82
2019-05-21T01:50:19.614Z,2.70
2019-05-21T01:52:24.367Z,1.87
2019-05-21T01:54:29.124Z,2.47
2019-05-21T01:56:33.943Z,2.10
2019-05-21T01:58:38.698Z,2.02
2019-05-21T02:00:43.611Z,2.12
2019-05-21T02:02:48.362Z,2.95
2019-05-21T02:04:53.105Z,2.75
2019-05-21T02:06:57.990Z,3.25
2019-05-21T02:09:02.935Z,2.40
2019-05-21T02:11:07.735Z,3.55
2019-05-21T02:13:12.526Z,3.42
2019-05-21T02:15:17.289Z,3.95
2019-05-21T02:17:22.035Z,4.05
2019-05-21T02:19:26.776Z,4.05
2019-05-21T02:21:31.543Z,4.87
2019-05-21T02:23:36.318Z,3.70
2019-05-21T02:25:41.376Z,4.12
2019-05-21T02:27:46.306Z,3.98
2019-05-21T02:29:51.050Z,4.70
2019-05-21T02:31:55.916Z,4.95
2019-05-21T02:34:00.687Z,4.90
2019-05-21T02:36:05.402Z,4.33
2019-05-21T02:38:10.158Z,4.53
2019-05-21T02:40:15.106Z,4.40
2019-05-21T02:42:19.889Z,4.78
2019-05-21T02:44:24.662Z,3.02
2019-05-21T02:46:29.379Z,3.42
2019-05-21T02:48:34.127Z,4.35
2019-05-21T02:50:38.966Z,3.35
2019-05-21T02:52:43.791Z,4.05
2019-05-21T02:54:48.550Z,4.87
2019-05-21T02:56:53.349Z,3.60
2019-05-21T02:58:58.114Z,3.40
2019-05-21T03:01:28.314Z,3.10
2019-05-21T03:03:33.667Z,4.00
2019-05-21T03:05:38.425Z,3.83
2019-05-21T03:07:43.202Z,3.55
2019-05-21T03:09:48.661Z,3.98
2019-05-21T03:11:53.606Z,3.42
2019-05-21T03:13:58.393Z,3.60
2019-05-21T03:16:03.156Z,3.90
2019-05-21T03:18:08.462Z,3.58
2019-05-21T03:20:13.254Z,4.30
2019-05-21T03:22:18.007Z,4.00
2019-05-21T03:24:22.816Z,3.70
2019-05-21T03:26:27.702Z,3.55
2019-05-21T03:28:32.556Z,3.20
2019-05-21T03:30:37.393Z,4.08
2019-05-21T03:32:42.244Z,3.50
2019-05-21T03:34:47.107Z,3.60
2019-05-21T03:36:51.952Z,4.22
2019-05-21T03:38:56.752Z,3.45
2019-05-21T03:41:01.593Z,4.10
2019-05-21T03:43:06.340Z,2.72
2019-05-21T03:45:11.609Z,3.22
2019-05-21T03:47:16.439Z,2.30
2019-05-21T03:49:21.301Z,2.40
2019-05-21T03:51:26.074Z,2.40
2019-05-21T03:53:30.827Z,3.47
2019-05-21T03:55:35.684Z,2.80
2019-05-21T03:57:40.439Z,3.05
2019-05-21T03:59:45.211Z,2.95
2019-05-21T04:01:49.961Z,3.00
2019-05-21T04:03:54.732Z,2.90
2019-05-21T04:05:59.640Z,2.80
2019-05-21T04:08:04.406Z,3.22
2019-05-21T04:10:15.701Z,2.80
2019-05-21T04:12:20.519Z,2.77
2019-05-21T04:14:38.715Z,3.52
2019-05-21T04:17:08.658Z,2.77
2019-05-21T04:19:17.175Z,3.10
2019-05-21T04:21:21.955Z,4.10
2019-05-21T04:23:26.784Z,2.90
2019-05-21T04:25:31.603Z,3.35
2019-05-21T04:27:36.423Z,2.75
2019-05-21T04:29:41.191Z,2.67
2019-05-21T04:31:45.998Z,3.50
2019-05-21T04:33:50.769Z,2.90
2019-05-21T04:35:55.623Z,3.35
2019-05-21T04:38:00.486Z,3.15
2019-05-21T04:40:05.315Z,2.77
2019-05-21T04:42:10.201Z,3.05
2019-05-21T04:44:14.996Z,3.12
2019-05-21T04:46:19.744Z,3.77
2019-05-21T04:48:24.605Z,2.33
2019-05-21T04:50:29.346Z,2.60
2019-05-21T04:52:34.096Z,3.02
2019-05-21T04:54:38.879Z,2.92
2019-05-21T04:56:43.687Z,2.60
2019-05-21T04:58:48.529Z,2.45
2019-05-21T05:00:53.342Z,2.80
2019-05-21T05:02:58.159Z,2.00
2019-05-21T05:05:03.972Z,2.25
2019-05-21T05:07:08.811Z,1.90
2019-05-21T05:09:13.599Z,1.32
2019-05-21T05:11:18.408Z,2.00
2019-05-21T05:13:23.200Z,1.45
2019-05-21T05:15:28.039Z,1.60
2019-05-21T05:17:32.816Z,1.55
2019-05-21T05:19:37.425Z,2.00
2019-05-21T05:21:42.301Z,1.85
2019-05-21T05:23:46.802Z,1.13
2019-05-21T05:25:51.539Z,1.02
2019-05-21T05:27:56.083Z,1.20
2019-05-21T05:30:00.627Z,1.23
2019-05-21T05:32:05.125Z,1.20
2019-05-21T05:34:09.735Z,1.40
2019-05-21T05:36:14.242Z,1.00
2019-05-21T05:38:18.744Z,1.00
2019-05-21T05:40:23.268Z,1.00
2019-05-21T05:42:27.768Z,1.00
2019-05-21T05:44:32.285Z,0.87
2019-05-21T05:46:36.806Z,1.30
2019-05-21T05:48:48.130Z,0.90
2019-05-21T05:50:54.635Z,1.30
2019-05-21T05:52:59.133Z,1.10
2019-05-21T05:55:03.707Z,0.80
2019-05-21T05:57:08.218Z,0.70
2019-05-21T05:59:14.399Z,0.80
2019-05-21T06:01:19.026Z,0.70
2019-05-21T06:03:23.522Z,0.80
2019-05-21T06:05:31.054Z,0.80
2019-05-21T06:07:35.570Z,0.83
2019-05-21T06:09:40.152Z,0.97
2019-05-21T06:11:44.737Z,0.80
2019-05-21T06:13:49.309Z,0.70
2019-05-21T06:15:53.887Z,1.07
2019-05-21T06:17:58.451Z,0.60
2019-05-21T06:20:02.973Z,0.63
2019-05-21T06:22:08.102Z,0.77
2019-05-21T06:24:13.571Z,0.67
2019-05-21T06:26:18.274Z,1.00
2019-05-21T06:28:22.738Z,0.70
2019-05-21T06:30:27.197Z,0.67
2019-05-21T06:32:31.666Z,0.80
2019-05-21T06:34:36.226Z,0.77
2019-05-21T06:36:40.707Z,0.70
2019-05-21T06:38:45.242Z,0.50
2019-05-21T06:40:49.754Z,0.60
2019-05-21T06:42:54.231Z,0.70
2019-05-21T06:44:58.718Z,0.70
2019-05-21T06:47:03.215Z,0.60
2019-05-21T06:49:07.693Z,0.50
2019-05-21T06:51:12.194Z,0.70
2019-05-21T06:53:16.746Z,0.60
2019-05-21T06:55:21.239Z,0.80
2019-05-21T06:57:25.733Z,1.13
2019-05-21T06:59:30.377Z,0.77
2019-05-21T07:01:34.856Z,0.50
2019-05-21T07:03:39.398Z,0.80
2019-05-21T07:05:57.567Z,0.60
2019-05-21T07:07:50.158Z,0.60
2019-05-21T07:09:54.634Z,0.70
2019-05-21T07:11:59.086Z,0.60
2019-05-21T07:14:03.569Z,0.60
2019-05-21T07:16:08.111Z,0.57
2019-05-21T07:18:12.615Z,1.37
2019-05-21T07:20:17.582Z,0.50
2019-05-21T07:22:22.042Z,0.50
2019-05-21T07:24:28.329Z,0.67
2019-05-21T07:26:32.686Z,0.60
2019-05-21T07:28:37.148Z,0.40
2019-05-21T07:30:41.704Z,0.60
2019-05-21T07:32:46.260Z,0.60
2019-05-21T07:34:50.873Z,0.50
2019-05-21T07:36:55.542Z,0.50
2019-05-21T07:38:59.982Z,0.40
2019-05-21T07:41:04.440Z,0.47
2019-05-21T07:43:08.910Z,0.40
2019-05-21T07:45:13.462Z,0.50
2019-05-21T07:47:17.935Z,0.40
2019-05-21T07:49:22.455Z,0.40
2019-05-21T07:51:27.000Z,0.43
2019-05-21T07:53:31.487Z,0.50
2019-05-21T07:55:35.949Z,0.50
2019-05-21T07:57:40.447Z,0.50
2019-05-21T07:59:44.948Z,0.40
2019-05-21T08:01:49.483Z,0.50
2019-05-21T08:03:54.034Z,0.50
2019-05-21T08:05:58.560Z,0.30
2019-05-21T08:08:03.160Z,0.40
2019-05-21T08:10:08.050Z,0.40
2019-05-21T08:12:35.584Z,0.40
2019-05-21T08:14:18.726Z,0.53
2019-05-21T08:16:23.211Z,0.40
2019-05-21T08:18:27.694Z,0.50
2019-05-21T08:20:32.202Z,0.40
2019-05-21T08:22:36.684Z,0.40
2019-05-21T08:24:41.178Z,0.50
2019-05-21T08:26:45.667Z,0.40
2019-05-21T08:28:50.147Z,0.40
2019-05-21T08:30:54.642Z,0.50
2019-05-21T08:32:59.118Z,0.40
2019-05-21T08:35:03.808Z,0.40
2019-05-21T08:37:08.407Z,0.40
2019-05-21T08:39:27.796Z,0.40
2019-05-21T08:41:19.107Z,0.40
2019-05-21T08:43:23.676Z,0.60
2019-05-21T08:45:28.163Z,0.50
2019-05-21T08:47:32.642Z,0.40
2019-05-21T08:49:37.120Z,0.40
2019-05-21T08:51:41.607Z,0.50
2019-05-21T08:53:46.172Z,0.50
2019-05-21T08:55:50.715Z,0.37
2019-05-21T08:58:06.554Z,0.60
2019-05-21T09:00:01.393Z,0.40
2019-05-21T09:02:05.867Z,0.60
2019-05-21T09:04:10.440Z,0.60
2019-05-21T09:06:15.022Z,0.50
2019-05-21T09:08:19.530Z,0.50
2019-05-21T09:10:24.015Z,0.47
2019-05-21T09:12:28.547Z,0.50
2019-05-21T09:14:33.059Z,0.50
2019-05-21T09:16:37.526Z,0.60
2019-05-21T09:18:41.993Z,0.60
2019-05-21T09:20:46.517Z,0.50
2019-05-21T09:22:50.995Z,0.63
2019-05-21T09:24:55.495Z,0.70
2019-05-21T09:27:00.051Z,0.73
2019-05-21T09:29:04.516Z,0.50
2019-05-21T09:31:09.003Z,0.70
2019-05-21T09:33:13.495Z,0.70
2019-05-21T09:35:18.012Z,0.57
2019-05-21T09:37:22.479Z,0.40
2019-05-21T09:39:26.942Z,0.53
2019-05-21T09:41:31.463Z,0.50
2019-05-21T09:43:35.935Z,0.77
2019-05-21T09:45:40.440Z,0.70
2019-05-21T09:47:45.002Z,0.50
2019-05-21T09:49:49.534Z,0.60
2019-05-21T09:51:54.123Z,0.40
2019-05-21T09:53:58.617Z,0.70
2019-05-21T09:56:22.165Z,0.50
2019-05-21T09:58:45.696Z,1.10
2019-05-21T10:01:15.870Z,0.50
2019-05-21T10:03:21.694Z,0.50
2019-05-21T10:05:26.177Z,0.40
2019-05-21T10:07:39.758Z,0.57
2019-05-21T10:09:36.865Z,0.60
2019-05-21T10:11:41.359Z,0.50
2019-05-21T10:13:45.955Z,0.90
2019-05-21T10:15:50.490Z,0.70
2019-05-21T10:17:55.065Z,0.40
2019-05-21T10:19:59.624Z,0.50
2019-05-21T10:22:10.991Z,0.47
2019-05-21T10:24:15.554Z,0.40
2019-05-21T10:26:20.047Z,0.50
2019-05-21T10:28:24.547Z,0.40
2019-05-21T10:30:29.038Z,0.50
2019-05-21T10:32:33.502Z,0.40
2019-05-21T10:34:37.978Z,0.40
2019-05-21T10:36:42.518Z,0.47
2019-05-21T10:38:47.014Z,0.60
2019-05-21T10:40:51.474Z,0.50
2019-05-21T10:42:55.978Z,0.50
2019-05-21T10:45:00.451Z,0.40
2019-05-21T10:47:04.970Z,0.50
2019-05-21T10:49:09.606Z,0.40
2019-05-21T10:51:14.083Z,0.40
2019-05-21T10:53:18.658Z,0.40
2019-05-21T10:55:23.131Z,0.43
2019-05-21T10:57:27.684Z,0.47
2019-05-21T10:59:32.231Z,0.50
2019-05-21T11:01:57.823Z,0.50
2019-05-21T11:04:33.463Z,0.40
2019-05-21T11:06:37.998Z,0.70
2019-05-21T11:08:42.505Z,0.50
2019-05-21T11:10:46.990Z,0.50
2019-05-21T11:12:51.476Z,0.50
2019-05-21T11:14:55.993Z,0.70
2019-05-21T11:17:00.547Z,0.40
2019-05-21T11:19:05.022Z,0.43
2019-05-21T11:21:09.502Z,0.60
2019-05-21T11:23:14.019Z,0.40
2019-05-21T11:25:18.505Z,0.50
2019-05-21T11:27:23.093Z,0.40
2019-05-21T11:29:27.686Z,0.30
2019-05-21T11:31:32.244Z,0.50
2019-05-21T11:33:36.745Z,0.40
2019-05-21T11:35:41.291Z,0.70
2019-05-21T11:37:47.980Z,0.60
2019-05-21T11:39:51.960Z,0.50
2019-05-21T11:41:56.434Z,0.50
2019-05-21T11:44:00.937Z,0.60
2019-05-21T11:46:05.438Z,0.40
2019-05-21T11:48:09.927Z,0.50
2019-05-21T11:50:15.884Z,0.50
2019-05-21T11:52:20.426Z,0.50
2019-05-21T11:54:24.934Z,0.53
2019-05-21T11:56:29.574Z,0.50
2019-05-21T11:58:39.604Z,1.37
2019-05-21T12:00:40.381Z,0.50
2019-05-21T12:02:44.946Z,0.70
2019-05-21T12:04:49.457Z,0.50
2019-05-21T12:06:53.975Z,0.60
2019-05-21T12:08:58.512Z,0.40
2019-05-21T12:11:02.987Z,0.57
2019-05-21T12:13:07.558Z,0.40
2019-05-21T12:15:12.136Z,0.40
2019-05-21T12:17:16.649Z,0.53
2019-05-21T12:19:21.246Z,0.40
2019-05-21T12:21:25.896Z,0.50
2019-05-21T12:23:30.377Z,0.40
2019-05-21T12:25:34.867Z,0.50
2019-05-21T12:27:39.459Z,0.70
2019-05-21T12:29:44.115Z,0.60
2019-05-21T12:31:48.600Z,0.77
2019-05-21T12:33:53.070Z,0.60
2019-05-21T12:35:57.558Z,0.60
2019-05-21T12:38:02.055Z,0.50
2019-05-21T12:40:06.743Z,0.67
2019-05-21T12:42:11.289Z,0.57
2019-05-21T12:44:15.839Z,0.50
2019-05-21T12:46:20.383Z,0.53
2019-05-21T12:48:24.853Z,0.43
2019-05-21T12:50:29.427Z,0.50
2019-05-21T12:52:34.050Z,0.50
2019-05-21T12:54:38.576Z,0.40
2019-05-21T12:56:43.098Z,0.40
2019-05-21T12:58:47.598Z,0.50
2019-05-21T13:00:52.091Z,0.60
2019-05-21T13:02:56.657Z,0.50
2019-05-21T13:05:01.202Z,0.57
2019-05-21T13:07:05.687Z,0.53
2019-05-21T13:09:10.186Z,0.57
2019-05-21T13:11:14.732Z,0.50
2019-05-21T13:13:19.242Z,0.60
2019-05-21T13:15:23.804Z,0.50
2019-05-21T13:17:28.275Z,0.70
2019-05-21T13:19:32.774Z,0.40
2019-05-21T13:21:37.316Z,0.57
2019-05-21T13:23:41.832Z,0.70
2019-05-21T13:25:46.323Z,0.50
2019-05-21T13:27:50.810Z,0.57
2019-05-21T13:29:55.396Z,0.70
2019-05-21T13:31:59.956Z,0.50
2019-05-21T13:34:04.503Z,0.67
2019-05-21T13:36:09.014Z,0.50
2019-05-21T13:38:13.922Z,0.50
2019-05-21T13:40:18.734Z,0.50
2019-05-21T13:42:23.230Z,0.60
2019-05-21T13:44:27.708Z,0.87
2019-05-21T13:46:35.415Z,0.90
2019-05-21T13:48:38.397Z,0.57
2019-05-21T13:50:42.934Z,1.00
2019-05-21T13:52:47.458Z,0.40
2019-05-21T13:54:51.936Z,0.50
2019-05-21T13:56:56.456Z,0.60
2019-05-21T13:59:01.835Z,0.43
2019-05-21T14:01:06.374Z,0.40
2019-05-21T14:03:10.983Z,0.40
2019-05-21T14:05:16.082Z,0.40
2019-05-21T14:07:20.625Z,0.60
2019-05-21T14:09:25.127Z,0.40
2019-05-21T14:11:29.922Z,0.60
2019-05-21T14:13:34.535Z,0.43
2019-05-21T14:15:39.015Z,0.60
2019-05-21T14:17:43.478Z,0.40
2019-05-21T14:19:48.003Z,0.50
2019-05-21T14:21:52.542Z,0.40
2019-05-21T14:23:57.033Z,0.47
2019-05-21T14:26:01.612Z,0.40
2019-05-21T14:28:06.167Z,0.50
2019-05-21T14:30:10.702Z,0.43
2019-05-21T14:32:15.238Z,0.60
2019-05-21T14:34:19.787Z,0.60
2019-05-21T14:36:24.266Z,0.60
2019-05-21T14:38:28.806Z,0.53
2019-05-21T14:40:33.278Z,0.50
2019-05-21T14:42:37.762Z,0.87
2019-05-21T14:44:42.326Z,0.60
2019-05-21T14:46:46.878Z,0.50
2019-05-21T14:48:51.384Z,0.40
2019-05-21T14:50:55.955Z,0.50
2019-05-21T14:53:00.502Z,0.50
2019-05-21T14:55:05.294Z,0.50
2019-05-21T14:57:12.923Z,0.63
2019-05-21T14:59:17.460Z,0.70
2019-05-21T15:01:21.967Z,0.80
2019-05-21T15:03:29.350Z,0.50
2019-05-21T15:05:33.026Z,0.50
2019-05-21T15:07:37.615Z,0.87
2019-05-21T15:09:42.089Z,0.60
2019-05-21T15:11:46.570Z,0.50
2019-05-21T15:13:51.043Z,0.40
2019-05-21T15:15:55.526Z,0.70
2019-05-21T15:18:00.023Z,0.77
2019-05-21T15:20:08.181Z,0.40
2019-05-21T15:22:12.655Z,0.40
2019-05-21T15:24:17.235Z,0.60
2019-05-21T15:26:21.830Z,0.53
2019-05-21T15:28:26.401Z,0.60
2019-05-21T15:30:30.943Z,0.73
2019-05-21T15:32:35.416Z,0.50
2019-05-21T15:34:39.994Z,0.47
2019-05-21T15:36:44.479Z,0.87
2019-05-21T15:38:51.033Z,0.40
2019-05-21T15:41:09.471Z,0.50
2019-05-21T15:43:01.399Z,0.50
2019-05-21T15:45:06.076Z,0.50
2019-05-21T15:47:10.609Z,0.50
2019-05-21T15:49:15.133Z,0.50
2019-05-21T15:51:19.594Z,0.60
2019-05-21T15:53:24.118Z,0.40
2019-05-21T15:55:28.599Z,0.53
2019-05-21T15:57:33.125Z,0.50
2019-05-21T15:59:37.669Z,0.73
2019-05-21T16:01:42.228Z,0.60
2019-05-21T16:03:46.717Z,0.43
2019-05-21T16:05:51.213Z,0.50
2019-05-21T16:07:55.816Z,0.57
2019-05-21T16:10:00.289Z,0.50
2019-05-21T16:12:04.778Z,0.60
2019-05-21T16:14:09.278Z,0.60
2019-05-21T16:16:13.775Z,0.60
2019-05-21T16:18:18.267Z,0.70
2019-05-21T16:20:22.755Z,0.80
2019-05-21T16:22:27.231Z,0.70
2019-05-21T16:24:31.747Z,0.60
2019-05-21T16:26:36.302Z,0.80
2019-05-21T16:28:40.779Z,0.70
2019-05-21T16:30:45.275Z,0.80
2019-05-21T16:32:49.871Z,0.50
2019-05-21T16:34:57.798Z,0.50
2019-05-21T16:37:03.191Z,0.50
2019-05-21T16:39:09.256Z,0.90
2019-05-21T16:41:13.947Z,0.63
2019-05-21T16:43:19.739Z,0.70
2019-05-21T16:45:25.494Z,1.00
2019-05-21T16:47:44.009Z,1.00
2019-05-21T16:49:37.271Z,0.67
2019-05-21T16:51:43.524Z,0.50
2019-05-21T16:53:49.580Z,0.60
2019-05-21T16:55:57.559Z,0.77
2019-05-21T16:58:02.018Z,0.70
2019-05-21T17:00:10.068Z,0.80
2019-05-21T17:02:15.085Z,0.70
2019-05-21T17:04:20.272Z,0.63
2019-05-21T17:06:28.871Z,0.93
2019-05-21T17:08:34.610Z,0.60
2019-05-21T17:10:40.371Z,0.97
2019-05-21T17:12:46.267Z,0.90
2019-05-21T17:14:51.703Z,0.90
2019-05-21T17:16:56.663Z,1.50
2019-05-21T17:19:02.304Z,0.90
2019-05-21T17:21:07.667Z,0.70
2019-05-21T17:23:13.631Z,0.80
2019-05-21T19:58:30.329Z,1.55
2019-05-21T20:00:39.019Z,2.17
2019-05-21T20:02:44.652Z,1.70
2019-05-21T20:04:50.043Z,1.82
2019-05-21T20:06:55.186Z,2.05
2019-05-21T20:09:00.461Z,1.70
2019-05-21T20:11:06.385Z,1.42
2019-05-21T20:13:14.167Z,1.85
2019-05-21T20:15:18.974Z,1.50
2019-05-21T20:17:27.768Z,2.40
2019-05-21T20:19:32.855Z,1.77
2019-05-21T20:21:38.392Z,1.95
2019-05-21T20:23:45.010Z,1.37
2019-05-21T20:25:56.479Z,1.20
2019-05-21T20:27:57.164Z,1.77
2019-05-21T20:30:12.374Z,1.25
2019-05-21T20:32:09.994Z,1.37
2019-05-21T20:34:14.752Z,1.00
2019-05-21T20:36:19.859Z,1.17
2019-05-21T20:38:25.769Z,1.60
2019-05-21T20:40:30.631Z,1.27
2019-05-21T20:42:36.198Z,1.10
2019-05-21T20:44:41.474Z,1.22
2019-05-21T20:46:47.362Z,1.45
2019-05-21T20:48:54.450Z,1.05
2019-05-21T20:50:59.423Z,0.80
2019-05-21T20:53:04.906Z,0.90
2019-05-21T20:55:10.454Z,1.12
2019-05-21T20:57:15.819Z,1.30
2019-05-21T20:59:20.891Z,1.60
2019-05-21T21:01:27.486Z,1.27
2019-05-21T21:03:34.207Z,1.30
2019-05-21T21:05:40.344Z,1.17
2019-05-21T21:07:45.311Z,1.20
2019-05-21T21:09:50.313Z,1.10
2019-05-21T21:11:56.649Z,1.52
2019-05-21T21:14:17.109Z,1.32
2019-05-21T21:16:08.171Z,1.10
2019-05-21T21:18:13.340Z,0.90
2019-05-21T21:20:18.862Z,1.07
2019-05-21T21:22:24.398Z,1.07
2019-05-21T21:24:29.187Z,1.20
2019-05-21T21:26:36.478Z,1.60
2019-05-21T21:28:41.411Z,0.95
2019-05-21T21:30:47.539Z,1.15
2019-05-21T21:32:56.409Z,1.30
2019-05-21T21:35:01.515Z,1.10
2019-05-21T21:37:08.887Z,1.17
2019-05-21T21:39:13.809Z,1.17
2019-05-21T21:41:19.370Z,1.22
2019-05-21T21:43:25.035Z,1.20
2019-05-21T21:45:30.161Z,1.32
2019-05-21T21:47:35.134Z,1.40
2019-05-21T21:49:41.572Z,0.98
2019-05-21T21:51:46.732Z,0.93
2019-05-21T21:53:51.770Z,1.35
2019-05-21T21:55:56.958Z,1.15
2019-05-21T21:58:01.863Z,1.25
2019-05-21T22:00:09.275Z,1.30
2019-05-21T22:02:28.531Z,1.32
2019-05-21T22:04:35.872Z,1.02
2019-05-21T22:06:41.527Z,1.00
2019-05-21T22:08:47.610Z,0.90
2019-05-21T22:10:52.563Z,0.80
2019-05-21T22:12:58.418Z,1.05
2019-05-21T22:15:03.154Z,1.32
2019-05-21T22:17:15.536Z,1.00
2019-05-21T22:19:22.850Z,0.90
2019-05-21T22:21:27.805Z,1.25
2019-05-21T22:23:32.572Z,0.82
2019-05-21T22:25:37.309Z,0.85
2019-05-21T22:27:42.189Z,1.10
2019-05-21T22:29:47.078Z,0.95
2019-05-21T22:31:51.901Z,1.20
2019-05-21T22:33:56.885Z,1.32
2019-05-21T22:36:05.831Z,1.40
2019-05-21T22:38:10.686Z,0.90
2019-05-21T22:40:15.475Z,0.95
2019-05-21T22:42:21.735Z,1.17
2019-05-21T22:44:26.814Z,1.22
2019-05-21T22:46:32.846Z,1.30
2019-05-21T22:48:38.610Z,0.98
2019-05-21T22:50:44.135Z,1.20
2019-05-21T22:52:48.886Z,0.93
2019-05-21T22:54:54.039Z,1.12
2019-05-21T22:57:00.413Z,0.88
2019-05-21T22:59:05.650Z,1.10
2019-05-21T23:01:12.456Z,1.17
2019-05-21T23:03:18.483Z,0.93
2019-05-21T23:05:23.948Z,0.82
2019-05-21T23:07:29.099Z,1.57
2019-05-21T23:09:35.265Z,1.05
2019-05-21T23:11:41.415Z,0.70
2019-05-21T23:13:46.259Z,1.02
2019-05-21T23:15:53.770Z,0.70
2019-05-21T23:17:59.077Z,1.00
2019-05-21T23:20:06.118Z,1.00
2019-05-21T23:22:14.370Z,1.27
